Time;durP1;ratioP1;P1;durP2;ratioP2;P2;SDS_P1;SDS_P2;PMS_P1;PMS_P2;Temp;Humidity;BMP_temperature;BMP_pressure;BME280_temperature;BME280_humidity;BME280_pressure;Samples;Min_cycle;Max_cycle;Signal;HPM_P1;HPM_P2
2024/02/16 00:00:24;;;;;;;60.33;31.95;;;3.40;99.90;;;;;;5009294;28;20091;-82
2024/02/16 00:02:49;;;;;;;56.25;30.50;;;3.40;99.90;;;;;;5012262;28;20018;-82
2024/02/16 00:05:15;;;;;;;57.47;30.80;;;3.30;99.90;;;;;;5012592;28;20373;-82
2024/02/16 00:07:41;;;;;;;59.17;30.70;;;3.30;99.90;;;;;;5012031;28;20026;-81
2024/02/16 00:10:08;;;;;;;60.15;31.85;;;3.20;99.90;;;;;;5080439;28;20022;-81
2024/02/16 00:12:34;;;;;;;59.35;30.77;;;3.20;99.90;;;;;;5080554;28;20498;-80
2024/02/16 00:15:01;;;;;;;57.72;31.60;;;3.20;99.90;;;;;;5080436;28;20026;-80
2024/02/16 00:17:27;;;;;;;58.78;31.38;;;3.10;99.90;;;;;;5080303;28;20028;-82
2024/02/16 00:19:53;;;;;;;58.22;31.05;;;3.10;99.90;;;;;;5002439;28;20443;-82
2024/02/16 00:22:19;;;;;;;56.78;32.65;;;3.00;99.90;;;;;;5077862;28;20022;-83
2024/02/16 00:24:45;;;;;;;63.70;36.08;;;3.00;99.90;;;;;;5004974;28;20113;-79
2024/02/16 00:27:10;;;;;;;82.75;50.38;;;3.00;99.90;;;;;;5011785;28;20520;-81
2024/02/16 00:29:38;;;;;;;63.33;34.67;;;3.00;99.90;;;;;;5011988;28;20018;-81
2024/02/16 00:32:06;;;;;;;62.63;34.53;;;3.00;99.90;;;;;;5007396;28;20080;-83
2024/02/16 00:34:36;;;;;;;59.78;34.00;;;3.00;99.90;;;;;;5003696;28;20087;-81
2024/02/16 00:37:03;;;;;;;72.65;35.15;;;3.10;99.90;;;;;;5010399;28;20049;-83
2024/02/16 00:39:29;;;;;;;61.30;32.47;;;3.20;99.90;;;;;;5093998;28;20048;-83
2024/02/16 00:41:55;;;;;;;69.80;35.42;;;3.30;99.90;;;;;;5093424;28;20023;-80
2024/02/16 00:44:22;;;;;;;68.15;34.03;;;3.30;99.90;;;;;;5093685;28;20393;-83
2024/02/16 00:46:47;;;;;;;61.72;33.90;;;3.40;99.90;;;;;;5093165;28;20031;-83
2024/02/16 00:49:13;;;;;;;58.50;33.75;;;3.50;99.90;;;;;;5083539;28;20110;-83
2024/02/16 00:51:40;;;;;;;64.90;33.15;;;3.50;99.90;;;;;;5092726;28;20024;-80
2024/02/16 00:54:05;;;;;;;69.22;37.78;;;3.50;99.90;;;;;;5091674;28;20024;-80
2024/02/16 00:56:33;;;;;;;82.65;42.72;;;3.60;99.90;;;;;;5093470;28;20088;-81
2024/02/16 00:58:59;;;;;;;78.25;42.45;;;3.50;99.90;;;;;;5094353;28;20020;-80
2024/02/16 01:01:26;;;;;;;70.60;38.70;;;3.50;99.90;;;;;;5094497;28;20028;-84
2024/02/16 01:03:52;;;;;;;74.18;40.20;;;3.50;99.90;;;;;;5087720;28;20017;-83
2024/02/16 01:06:18;;;;;;;73.40;36.45;;;3.50;99.90;;;;;;5103227;28;20078;-83
2024/02/16 01:08:44;;;;;;;60.03;33.50;;;3.50;99.90;;;;;;5094119;28;20489;-80
2024/02/16 01:11:09;;;;;;;56.47;30.42;;;3.50;99.90;;;;;;5093259;28;20016;-82
2024/02/16 01:13:35;;;;;;;52.30;30.10;;;3.40;99.90;;;;;;5090669;28;20067;-81
2024/02/16 01:16:02;;;;;;;52.17;29.27;;;3.40;99.90;;;;;;5093125;28;20019;-81
2024/02/16 01:18:29;;;;;;;55.40;30.95;;;3.40;99.90;;;;;;5094330;28;20481;-82
2024/02/16 01:20:55;;;;;;;52.50;30.60;;;3.50;99.90;;;;;;5086954;28;20020;-80
2024/02/16 01:23:21;;;;;;;55.88;30.73;;;3.50;99.90;;;;;;5093988;28;20479;-80
2024/02/16 01:25:47;;;;;;;57.08;30.80;;;3.50;99.90;;;;;;5086691;28;20044;-81
2024/02/16 01:28:13;;;;;;;56.70;29.60;;;3.50;99.90;;;;;;5092358;28;20047;-83
2024/02/16 01:30:39;;;;;;;55.88;31.17;;;3.50;99.90;;;;;;5093618;28;20020;-81
2024/02/16 01:33:06;;;;;;;51.75;30.20;;;3.50;99.90;;;;;;5093700;28;20024;-81
2024/02/16 01:35:32;;;;;;;57.30;30.90;;;3.50;99.90;;;;;;5094275;28;20054;-82
2024/02/16 01:37:58;;;;;;;59.38;30.70;;;3.50;99.90;;;;;;5093613;28;20031;-82
2024/02/16 01:40:26;;;;;;;59.30;31.95;;;3.50;99.90;;;;;;5025133;28;20050;-82
2024/02/16 01:42:52;;;;;;;61.28;32.83;;;3.50;99.90;;;;;;5001848;28;20034;-81
2024/02/16 01:45:18;;;;;;;70.28;31.98;;;3.50;99.90;;;;;;5009990;28;20018;-83
2024/02/16 01:47:46;;;;;;;61.35;32.50;;;3.50;99.90;;;;;;5001102;28;20101;-83
2024/02/16 01:50:14;;;;;;;58.10;31.45;;;3.50;99.90;;;;;;5010052;28;20014;-81
2024/02/16 01:52:40;;;;;;;56.20;29.52;;;3.50;99.90;;;;;;5005024;28;20025;-79
2024/02/16 01:55:08;;;;;;;47.78;29.55;;;3.50;99.90;;;;;;5009976;28;20034;-81
2024/02/16 01:57:35;;;;;;;58.75;29.95;;;3.50;99.90;;;;;;5065628;28;20034;-81
2024/02/16 02:00:00;;;;;;;55.42;30.15;;;3.50;99.90;;;;;;5005180;28;20022;-81
2024/02/16 02:02:27;;;;;;;57.78;30.83;;;3.40;99.90;;;;;;5010153;28;20086;-81
2024/02/16 02:04:53;;;;;;;55.42;31.85;;;3.50;99.90;;;;;;5078004;28;20018;-81
2024/02/16 02:07:18;;;;;;;55.58;29.90;;;3.50;99.90;;;;;;5010342;28;20036;-81
2024/02/16 02:09:44;;;;;;;52.25;28.58;;;3.50;99.90;;;;;;5078492;28;20098;-81
2024/02/16 02:12:09;;;;;;;53.22;29.08;;;3.50;99.90;;;;;;5065613;28;20063;-84
2024/02/16 02:14:37;;;;;;;58.58;30.67;;;3.50;99.90;;;;;;5001481;28;20126;-83
2024/02/16 02:17:03;;;;;;;53.47;32.00;;;3.50;99.90;;;;;;5078121;28;20018;-83
2024/02/16 02:19:29;;;;;;;52.67;29.25;;;3.40;99.90;;;;;;5010474;28;20500;-79
2024/02/16 02:21:55;;;;;;;50.78;29.23;;;3.30;99.90;;;;;;5009445;28;20050;-79
2024/02/16 02:24:21;;;;;;;52.90;30.33;;;3.30;99.90;;;;;;5010262;28;20107;-79
2024/02/16 02:26:47;;;;;;;52.20;28.38;;;3.20;99.90;;;;;;5077928;28;20076;-79
2024/02/16 02:29:12;;;;;;;48.17;27.20;;;3.20;99.90;;;;;;4992928;28;20537;-79
2024/02/16 02:31:38;;;;;;;51.25;28.33;;;3.20;99.90;;;;;;5068758;28;20025;-79
2024/02/16 02:34:05;;;;;;;49.80;26.50;;;3.10;99.90;;;;;;5010148;28;20030;-82
2024/02/16 02:36:32;;;;;;;46.30;25.05;;;3.10;99.90;;;;;;5077749;28;20030;-80
2024/02/16 02:38:58;;;;;;;43.35;25.30;;;3.00;99.90;;;;;;5077424;28;20402;-79
2024/02/16 02:41:24;;;;;;;45.95;25.20;;;3.00;99.90;;;;;;5001164;28;20031;-82
2024/02/16 02:43:50;;;;;;;45.50;25.52;;;3.00;99.90;;;;;;5008023;28;20014;-81
2024/02/16 02:46:16;;;;;;;40.47;23.98;;;3.00;99.90;;;;;;5010334;28;20110;-83
2024/02/16 02:48:46;;;;;;;43.45;24.50;;;3.10;99.90;;;;;;5009556;28;20026;-80
2024/02/16 02:51:11;;;;;;;44.10;26.10;;;3.10;99.90;;;;;;5010335;28;20022;-80
2024/02/16 02:53:37;;;;;;;46.30;24.88;;;3.10;99.90;;;;;;5077518;28;20105;-81
2024/02/16 02:56:04;;;;;;;44.97;24.50;;;3.10;99.90;;;;;;5050964;28;20026;-80
2024/02/16 02:58:29;;;;;;;48.72;27.83;;;3.10;99.90;;;;;;5013822;28;20014;-80
2024/02/16 03:00:55;;;;;;;48.70;27.33;;;3.00;99.90;;;;;;5000735;28;20053;-80
2024/02/16 03:03:21;;;;;;;44.50;24.73;;;2.80;99.90;;;;;;5009964;28;20372;-81
2024/02/16 03:05:47;;;;;;;43.90;24.60;;;2.70;99.90;;;;;;5077778;28;20022;-79
2024/02/16 03:08:13;;;;;;;49.67;25.40;;;2.70;99.90;;;;;;5077469;28;20021;-82
2024/02/16 03:10:39;;;;;;;44.78;25.40;;;2.70;99.90;;;;;;5004286;28;20494;-82
2024/02/16 03:13:06;;;;;;;47.75;24.90;;;2.60;99.90;;;;;;5075115;28;20036;-81
2024/02/16 03:15:33;;;;;;;42.78;22.48;;;2.60;99.90;;;;;;5009781;28;20053;-81
2024/02/16 03:17:59;;;;;;;39.75;23.05;;;2.50;99.90;;;;;;5076925;28;20025;-81
2024/02/16 03:20:25;;;;;;;39.67;23.58;;;2.50;99.90;;;;;;5077539;28;20479;-80
2024/02/16 03:22:50;;;;;;;33.33;20.48;;;2.40;99.90;;;;;;5009408;28;20498;-81
2024/02/16 03:25:16;;;;;;;38.53;20.67;;;2.40;99.90;;;;;;5077389;28;20467;-78
2024/02/16 03:27:43;;;;;;;37.83;21.33;;;2.30;99.90;;;;;;5076990;28;20018;-81
2024/02/16 03:30:10;;;;;;;38.00;21.73;;;2.40;99.90;;;;;;5087866;28;20030;-78
2024/02/16 03:32:35;;;;;;;42.42;22.60;;;2.30;99.90;;;;;;5077201;28;20045;-81
2024/02/16 03:35:02;;;;;;;51.92;28.95;;;2.30;99.90;;;;;;5093819;28;20092;-82
2024/02/16 03:37:27;;;;;;;58.80;25.95;;;2.50;99.90;;;;;;5087556;28;20049;-79
2024/02/16 03:39:55;;;;;;;62.83;30.60;;;2.50;99.90;;;;;;5089588;28;20082;-82
2024/02/16 03:42:21;;;;;;;54.67;28.10;;;2.60;99.90;;;;;;5092069;28;20366;-81
2024/02/16 03:44:47;;;;;;;92.53;46.38;;;2.70;99.90;;;;;;5092075;28;20020;-79
2024/02/16 03:47:13;;;;;;;63.72;31.58;;;2.70;99.90;;;;;;5090781;28;20100;-79
2024/02/16 03:49:39;;;;;;;53.28;24.67;;;2.80;99.90;;;;;;5092537;28;20024;-80
2024/02/16 03:52:05;;;;;;;48.30;26.13;;;2.80;99.90;;;;;;5090710;28;20065;-79
2024/02/16 03:54:30;;;;;;;43.90;24.63;;;2.90;99.90;;;;;;5091773;28;20040;-79
2024/02/16 03:56:57;;;;;;;40.75;23.25;;;2.90;99.90;;;;;;5090831;28;20009;-79
2024/02/16 03:59:23;;;;;;;43.40;24.27;;;3.00;99.90;;;;;;5091183;28;20027;-79
2024/02/16 04:01:49;;;;;;;43.25;25.15;;;3.00;99.90;;;;;;5090417;28;20367;-78
2024/02/16 04:04:15;;;;;;;46.15;23.45;;;3.10;99.90;;;;;;5090906;28;20044;-80
2024/02/16 04:06:41;;;;;;;37.13;21.30;;;3.10;99.90;;;;;;5091823;28;20432;-81
2024/02/16 04:09:07;;;;;;;36.42;21.58;;;2.90;99.90;;;;;;5083351;28;20039;-80
2024/02/16 04:11:33;;;;;;;43.08;22.17;;;2.80;99.90;;;;;;5090566;28;20100;-79
2024/02/16 04:13:59;;;;;;;36.20;19.17;;;2.80;99.90;;;;;;5095369;28;20051;-79
2024/02/16 04:16:25;;;;;;;35.42;18.73;;;2.80;99.90;;;;;;5094629;28;20020;-79
2024/02/16 04:18:52;;;;;;;37.88;20.77;;;2.90;99.90;;;;;;5094089;28;20028;-80
2024/02/16 04:21:17;;;;;;;36.83;19.98;;;2.90;99.90;;;;;;5094992;28;20024;-79
2024/02/16 04:23:44;;;;;;;39.47;22.13;;;3.00;99.90;;;;;;5095395;28;20027;-80
2024/02/16 04:26:09;;;;;;;35.75;19.83;;;3.00;99.90;;;;;;5095014;28;20024;-80
2024/02/16 04:28:35;;;;;;;35.00;19.33;;;3.00;99.90;;;;;;5109393;28;20082;-80
2024/02/16 04:31:01;;;;;;;36.25;20.35;;;3.00;99.90;;;;;;5093939;28;20050;-81
2024/02/16 04:33:26;;;;;;;32.28;19.08;;;2.90;99.90;;;;;;5094008;28;20149;-80
2024/02/16 04:35:52;;;;;;;34.85;19.38;;;2.80;99.90;;;;;;5093480;28;20028;-79
2024/02/16 04:38:18;;;;;;;35.85;20.08;;;2.80;99.90;;;;;;5093289;28;20039;-81
2024/02/16 04:40:43;;;;;;;32.65;18.50;;;2.80;99.90;;;;;;5093559;28;20044;-81
2024/02/16 04:43:09;;;;;;;29.60;17.33;;;2.90;99.90;;;;;;5108918;28;20069;-80
2024/02/16 04:45:35;;;;;;;28.75;18.05;;;3.00;99.90;;;;;;5094687;28;20474;-80
2024/02/16 04:48:08;;;;;;;34.42;18.38;;;3.00;99.90;;;;;;5095002;28;20020;-79
2024/02/16 04:50:35;;;;;;;37.63;20.20;;;3.10;99.90;;;;;;5093504;28;20020;-79
2024/02/16 04:53:03;;;;;;;38.97;21.45;;;3.10;99.90;;;;;;5093306;28;20016;-78
2024/02/16 04:55:30;;;;;;;38.90;21.15;;;3.10;99.90;;;;;;5093203;28;20047;-81
2024/02/16 04:57:56;;;;;;;36.08;20.95;;;3.10;99.90;;;;;;5094596;28;20028;-78
2024/02/16 05:00:22;;;;;;;32.25;19.20;;;3.00;99.90;;;;;;5090371;28;20049;-79
2024/02/16 05:02:47;;;;;;;35.13;19.23;;;3.00;99.90;;;;;;5093450;28;20066;-79
2024/02/16 05:05:15;;;;;;;29.55;17.27;;;3.00;99.90;;;;;;5094327;28;20016;-79
2024/02/16 05:07:42;;;;;;;36.45;20.60;;;3.10;99.90;;;;;;5092694;28;20031;-81
2024/02/16 05:10:10;;;;;;;39.00;21.38;;;3.10;99.90;;;;;;5093523;28;20044;-81
2024/02/16 05:12:37;;;;;;;35.33;18.83;;;3.10;99.90;;;;;;5094356;28;20093;-79
2024/02/16 05:15:03;;;;;;;30.38;17.10;;;3.10;99.90;;;;;;5094654;28;20028;-79
2024/02/16 05:17:29;;;;;;;32.67;18.48;;;3.00;99.90;;;;;;5094051;28;20111;-80
2024/02/16 05:19:54;;;;;;;29.92;17.17;;;3.00;99.90;;;;;;5094209;28;20091;-79
2024/02/16 05:22:21;;;;;;;30.42;18.63;;;3.00;99.90;;;;;;5093421;28;20375;-79
2024/02/16 05:24:47;;;;;;;27.50;15.65;;;3.00;99.90;;;;;;5093924;28;20020;-80
2024/02/16 05:27:13;;;;;;;29.48;15.75;;;2.90;99.90;;;;;;5093830;28;20077;-80
2024/02/16 05:29:40;;;;;;;29.33;16.30;;;2.90;99.90;;;;;;5089938;28;20029;-79
2024/02/16 05:32:06;;;;;;;26.48;17.60;;;3.00;99.90;;;;;;5087724;28;20027;-79
2024/02/16 05:34:37;;;;;;;34.85;20.95;;;3.00;99.90;;;;;;5093949;28;20393;-79
2024/02/16 05:37:06;;;;;;;34.15;19.20;;;3.00;99.90;;;;;;5108398;28;20028;-80
2024/02/16 05:39:35;;;;;;;35.53;18.95;;;2.90;99.90;;;;;;5093377;28;20510;-80
2024/02/16 05:42:01;;;;;;;28.45;15.68;;;2.90;99.90;;;;;;5108559;28;20020;-80
2024/02/16 05:44:27;;;;;;;31.27;17.70;;;2.90;99.90;;;;;;5093254;28;20020;-80
2024/02/16 05:46:53;;;;;;;26.00;15.32;;;2.90;99.90;;;;;;5081489;28;20085;-80
2024/02/16 05:49:19;;;;;;;28.27;15.52;;;2.90;99.90;;;;;;5096548;28;20043;-82
2024/02/16 05:52:17;;;;;;;30.65;17.63;;;2.90;99.90;;;;;;5086016;28;20363;-80
2024/02/16 05:54:31;;;;;;;27.23;16.20;;;2.90;99.90;;;;;;5093272;28;20040;-81
2024/02/16 05:56:57;;;;;;;26.70;16.67;;;2.90;99.90;;;;;;5087226;28;20553;-81
2024/02/16 05:59:24;;;;;;;30.95;17.17;;;2.90;99.90;;;;;;5073399;28;20020;-81
2024/02/16 06:01:50;;;;;;;34.25;18.02;;;2.90;99.90;;;;;;5090322;28;20107;-81
2024/02/16 06:04:16;;;;;;;30.98;16.63;;;2.90;99.90;;;;;;5093460;28;20182;-81
2024/02/16 06:06:42;;;;;;;26.88;16.60;;;3.00;99.90;;;;;;5093150;28;20012;-81
2024/02/16 06:09:07;;;;;;;25.08;15.18;;;3.00;99.90;;;;;;5093482;28;20028;-81
2024/02/16 06:11:33;;;;;;;23.83;15.27;;;3.00;99.90;;;;;;5091710;28;20023;-80
2024/02/16 06:13:58;;;;;;;27.65;15.55;;;3.00;99.90;;;;;;5091755;28;20078;-79
2024/02/16 06:16:24;;;;;;;29.58;14.50;;;3.10;99.90;;;;;;5091232;28;20082;-80
2024/02/16 06:18:49;;;;;;;30.52;18.05;;;3.10;99.90;;;;;;5091813;28;20065;-80
2024/02/16 06:21:15;;;;;;;23.33;14.10;;;3.10;99.90;;;;;;5091849;28;20020;-80
2024/02/16 06:23:41;;;;;;;24.58;15.00;;;3.10;99.90;;;;;;5092429;28;20362;-80
2024/02/16 06:26:07;;;;;;;28.02;15.32;;;3.10;99.90;;;;;;5092957;28;20020;-80
2024/02/16 06:28:32;;;;;;;27.63;16.02;;;3.10;99.90;;;;;;5093522;28;20437;-80
2024/02/16 06:30:58;;;;;;;24.42;14.27;;;3.20;99.90;;;;;;5091232;28;20028;-80
2024/02/16 06:33:23;;;;;;;23.83;15.18;;;3.30;99.90;;;;;;5091015;28;20073;-79
2024/02/16 06:35:50;;;;;;;26.50;14.80;;;3.20;99.90;;;;;;5087728;28;20046;-79
2024/02/16 06:38:15;;;;;;;25.30;15.20;;;3.30;99.90;;;;;;5080198;28;20107;-78
2024/02/16 06:40:41;;;;;;;22.85;13.80;;;3.40;99.90;;;;;;5089663;28;20116;-78
2024/02/16 06:43:07;;;;;;;27.45;16.08;;;3.40;99.90;;;;;;5081579;28;20048;-78
2024/02/16 06:45:32;;;;;;;28.38;14.45;;;3.40;99.90;;;;;;5089458;28;20027;-79
2024/02/16 06:47:58;;;;;;;23.08;13.88;;;3.50;99.90;;;;;;5087423;28;20374;-78
2024/02/16 06:50:23;;;;;;;26.23;15.18;;;3.50;99.90;;;;;;5091825;28;20035;-79
2024/02/16 06:52:49;;;;;;;28.50;16.60;;;3.70;99.90;;;;;;5081670;28;20513;-78
2024/02/16 06:55:14;;;;;;;35.40;17.48;;;3.80;99.90;;;;;;5077999;28;20105;-78
2024/02/16 06:57:40;;;;;;;33.33;19.33;;;3.80;99.90;;;;;;5108230;28;20020;-78
2024/02/16 07:00:08;;;;;;;36.20;21.08;;;3.90;99.90;;;;;;5091463;28;20039;-80
2024/02/16 07:02:34;;;;;;;40.17;21.30;;;4.00;99.90;;;;;;5090249;28;20031;-79
2024/02/16 07:05:00;;;;;;;37.17;21.95;;;4.10;99.90;;;;;;5088712;28;20016;-79
2024/02/16 07:07:26;;;;;;;36.65;19.35;;;4.30;99.90;;;;;;5082309;28;20050;-79
2024/02/16 07:09:51;;;;;;;34.80;20.42;;;4.40;99.90;;;;;;5085683;28;20048;-79
2024/02/16 07:12:17;;;;;;;36.28;20.38;;;4.50;99.90;;;;;;5087351;28;20386;-79
2024/02/16 07:14:45;;;;;;;31.63;18.35;;;4.70;99.90;;;;;;5087945;28;20036;-79
2024/02/16 07:17:11;;;;;;;30.15;16.98;;;4.80;99.90;;;;;;5091220;28;20020;-79
2024/02/16 07:19:37;;;;;;;23.45;15.18;;;4.90;99.90;;;;;;5089547;28;20024;-78
2024/02/16 07:22:03;;;;;;;28.33;17.70;;;5.00;99.90;;;;;;5090173;28;20086;-79
2024/02/16 07:24:28;;;;;;;24.55;14.93;;;5.10;99.90;;;;;;5086759;28;20028;-78
2024/02/16 07:26:54;;;;;;;24.73;14.48;;;5.20;99.90;;;;;;5088193;28;20012;-80
2024/02/16 07:29:20;;;;;;;23.35;14.85;;;5.30;99.90;;;;;;5090055;28;20038;-78
2024/02/16 07:31:46;;;;;;;24.95;14.35;;;5.40;99.90;;;;;;5077517;28;20046;-78
2024/02/16 07:34:11;;;;;;;25.80;13.98;;;5.50;99.90;;;;;;5089753;28;20043;-79
2024/02/16 07:36:37;;;;;;;18.40;12.32;;;5.70;99.90;;;;;;5090252;28;20016;-78
2024/02/16 07:39:04;;;;;;;16.98;11.32;;;5.80;99.90;;;;;;5106584;28;20040;-79
2024/02/16 07:41:30;;;;;;;17.60;10.80;;;6.00;99.90;;;;;;5077468;28;20496;-78
2024/02/16 07:43:56;;;;;;;19.02;11.52;;;6.10;99.90;;;;;;5090354;28;20119;-78
2024/02/16 07:46:22;;;;;;;20.88;12.63;;;6.20;99.90;;;;;;5092574;28;20115;-81
2024/02/16 07:48:48;;;;;;;19.27;13.43;;;6.40;99.90;;;;;;5092289;28;20543;-80
2024/02/16 07:51:14;;;;;;;20.55;12.02;;;6.50;99.90;;;;;;5087534;28;20027;-80
2024/02/16 07:53:42;;;;;;;21.67;11.82;;;6.70;99.90;;;;;;5086969;28;20096;-82
2024/02/16 07:56:07;;;;;;;18.33;10.90;;;6.80;99.90;;;;;;5091575;28;20031;-79
2024/02/16 07:58:33;;;;;;;14.60;9.32;;;7.00;99.90;;;;;;5088256;28;20019;-79
2024/02/16 08:00:59;;;;;;;14.23;8.90;;;7.20;99.90;;;;;;5084617;28;20478;-78
2024/02/16 08:03:24;;;;;;;14.07;8.50;;;7.30;99.90;;;;;;5091649;28;20016;-78
2024/02/16 08:05:50;;;;;;;10.45;7.15;;;7.50;99.90;;;;;;5081748;28;20099;-77
2024/02/16 08:08:15;;;;;;;12.52;6.90;;;7.60;99.90;;;;;;5082341;28;20035;-78
2024/02/16 08:10:41;;;;;;;11.57;6.97;;;7.80;99.90;;;;;;5086863;28;20021;-79
2024/02/16 08:13:07;;;;;;;11.95;8.15;;;7.90;99.90;;;;;;5073461;28;20024;-78
2024/02/16 08:15:32;;;;;;;11.38;7.10;;;8.00;99.90;;;;;;5082325;28;20394;-79
2024/02/16 08:17:58;;;;;;;11.60;7.65;;;8.10;99.90;;;;;;5093661;28;20008;-78
2024/02/16 08:20:24;;;;;;;10.70;6.93;;;8.30;99.90;;;;;;5101919;28;20071;-79
2024/02/16 08:22:49;;;;;;;13.00;7.93;;;8.40;99.90;;;;;;5077659;28;20051;-78
2024/02/16 08:25:15;;;;;;;10.77;7.60;;;8.50;99.90;;;;;;5083042;28;20028;-78
2024/02/16 08:27:41;;;;;;;14.23;7.90;;;8.60;99.90;;;;;;5088696;28;20023;-79
2024/02/16 08:30:08;;;;;;;12.68;7.80;;;8.70;99.90;;;;;;5093706;28;20028;-78
2024/02/16 08:32:34;;;;;;;11.82;7.25;;;8.80;99.90;;;;;;5093018;28;20103;-78
2024/02/16 08:35:00;;;;;;;10.80;6.90;;;8.80;99.90;;;;;;5085837;28;20127;-79
2024/02/16 08:37:26;;;;;;;12.13;7.40;;;8.90;99.90;;;;;;5094714;28;20063;-79
2024/02/16 08:39:52;;;;;;;11.63;6.50;;;8.90;99.90;;;;;;5092078;28;20048;-79
2024/02/16 08:42:18;;;;;;;10.18;5.97;;;9.00;99.90;;;;;;5081531;28;20038;-79
2024/02/16 08:44:44;;;;;;;10.35;7.13;;;9.10;99.90;;;;;;5084615;28;20024;-79
2024/02/16 08:47:09;;;;;;;11.90;6.97;;;9.20;99.90;;;;;;5093734;28;20024;-79
2024/02/16 08:49:35;;;;;;;8.45;6.22;;;9.30;99.90;;;;;;5102623;28;20130;-79
2024/02/16 08:52:01;;;;;;;13.60;6.72;;;9.50;99.90;;;;;;5091885;28;20009;-78
2024/02/16 08:54:26;;;;;;;9.68;6.57;;;9.60;99.90;;;;;;5082831;28;20044;-80
2024/02/16 08:56:54;;;;;;;9.55;6.35;;;9.70;99.90;;;;;;5086587;28;20024;-79
2024/02/16 08:59:20;;;;;;;8.43;5.28;;;9.80;99.90;;;;;;5091074;28;20036;-78
2024/02/16 09:01:46;;;;;;;7.13;5.18;;;9.90;99.90;;;;;;5088943;28;20024;-79
2024/02/16 09:04:11;;;;;;;8.05;5.00;;;10.00;99.90;;;;;;5093003;28;20043;-80
2024/02/16 09:06:38;;;;;;;8.82;5.82;;;10.20;99.90;;;;;;5082385;28;20020;-79
2024/02/16 09:09:04;;;;;;;7.32;5.20;;;10.20;99.90;;;;;;5081242;28;20029;-80
2024/02/16 09:11:30;;;;;;;6.40;4.50;;;10.40;99.90;;;;;;5075995;28;20375;-80
2024/02/16 09:13:55;;;;;;;8.90;4.88;;;10.40;99.90;;;;;;5079569;28;20115;-80
2024/02/16 09:16:21;;;;;;;8.20;4.60;;;10.50;99.90;;;;;;5081809;28;20036;-80
2024/02/16 09:18:50;;;;;;;6.70;4.45;;;10.60;99.90;;;;;;5097925;28;20020;-80
2024/02/16 09:21:15;;;;;;;7.57;4.40;;;10.70;99.80;;;;;;5089159;28;20024;-80
2024/02/16 09:23:41;;;;;;;7.75;3.90;;;10.80;98.20;;;;;;5089039;28;20031;-83
2024/02/16 09:26:10;;;;;;;7.07;4.45;;;10.90;97.30;;;;;;5088122;28;20058;-82
2024/02/16 09:28:41;;;;;;;4.88;4.13;;;11.00;97.60;;;;;;5090852;28;20081;-80
2024/02/16 09:31:10;;;;;;;5.78;3.75;;;11.00;95.90;;;;;;5087702;28;20023;-80
2024/02/16 09:33:36;;;;;;;4.90;4.03;;;11.10;93.30;;;;;;5094268;28;20027;-80
2024/02/16 09:36:01;;;;;;;7.45;3.90;;;11.20;92.70;;;;;;5087866;28;20024;-80
2024/02/16 09:38:27;;;;;;;4.63;3.88;;;11.30;92.70;;;;;;5088924;28;20020;-81
2024/02/16 09:40:53;;;;;;;3.17;2.88;;;11.30;90.80;;;;;;5078653;28;20048;-81
2024/02/16 09:43:26;;;;;;;4.90;3.05;;;11.40;88.50;;;;;;5095331;28;20121;-80
2024/02/16 09:46:01;;;;;;;3.60;3.05;;;11.40;89.20;;;;;;5010928;28;20014;-80
2024/02/16 09:48:27;;;;;;;4.07;2.67;;;11.50;88.10;;;;;;5007774;28;20022;-80
2024/02/16 09:50:55;;;;;;;9.77;5.32;;;11.50;85.50;;;;;;5010804;28;20022;-81
2024/02/16 09:53:23;;;;;;;4.60;3.00;;;11.60;82.70;;;;;;5010592;28;20022;-80
2024/02/16 09:55:49;;;;;;;6.10;3.00;;;11.60;83.70;;;;;;5072711;28;20440;-81
2024/02/16 09:58:18;;;;;;;3.33;2.50;;;11.70;83.70;;;;;;5006371;28;20061;-81
2024/02/16 10:00:55;;;;;;;4.63;3.00;;;11.80;81.60;;;;;;5006069;28;20082;-81
2024/02/16 10:03:28;;;;;;;3.58;2.42;;;11.80;80.20;;;;;;5008574;28;20025;-81
2024/02/16 10:06:10;;;;;;;6.50;3.08;;;11.90;81.10;;;;;;5010644;28;20454;-80
2024/02/16 10:08:51;;;;;;;10.25;5.25;;;12.10;81.60;;;;;;5001041;28;20026;-81
2024/02/16 10:11:21;;;;;;;10.90;5.85;;;12.20;78.80;;;;;;5010875;28;20056;-80
2024/02/16 10:14:01;;;;;;;5.18;3.00;;;12.20;78.70;;;;;;5010351;28;20038;-81
2024/02/16 10:16:29;;;;;;;3.03;2.67;;;12.30;77.20;;;;;;5002991;28;20025;-81
2024/02/16 10:19:06;;;;;;;7.40;3.63;;;12.30;77.50;;;;;;4998610;28;20103;-81
2024/02/16 10:21:32;;;;;;;25.65;10.23;;;12.40;76.50;;;;;;5010320;28;20019;-81
2024/02/16 10:24:08;;;;;;;13.25;6.72;;;12.40;75.60;;;;;;5085205;28;20025;-80
2024/02/16 10:26:38;;;;;;;6.82;3.03;;;12.60;76.30;;;;;;5007922;28;20029;-81
2024/02/16 10:29:05;;;;;;;4.25;2.88;;;12.70;76.80;;;;;;5000908;28;20030;-80
2024/02/16 10:31:34;;;;;;;25.88;12.18;;;12.70;76.10;;;;;;5077076;28;20037;-80
2024/02/16 10:34:05;;;;;;;26.10;11.48;;;12.70;75.40;;;;;;5073486;28;20034;-80
2024/02/16 10:36:33;;;;;;;6.78;3.15;;;12.70;73.50;;;;;;4996075;28;20026;-80
2024/02/16 10:38:59;;;;;;;7.50;3.03;;;12.70;72.30;;;;;;5001138;28;20473;-81
2024/02/16 10:41:29;;;;;;;6.63;3.22;;;12.80;72.70;;;;;;5074741;28;20112;-80
2024/02/16 10:43:56;;;;;;;6.05;4.07;;;12.80;71.40;;;;;;4999977;28;20057;-80
2024/02/16 10:46:23;;;;;;;9.85;4.75;;;12.90;71.50;;;;;;5002238;28;20030;-79
2024/02/16 10:48:49;;;;;;;15.90;7.40;;;13.00;70.60;;;;;;5002777;28;20058;-80
2024/02/16 10:51:16;;;;;;;38.17;18.42;;;12.90;69.90;;;;;;5002377;28;20049;-81
2024/02/16 10:53:43;;;;;;;29.80;17.73;;;13.00;69.70;;;;;;5074117;28;20022;-81
2024/02/16 10:56:09;;;;;;;87.80;44.38;;;13.10;69.80;;;;;;5005740;28;20034;-80
2024/02/16 10:58:34;;;;;;;55.33;21.25;;;13.10;69.20;;;;;;5002883;28;20457;-80
2024/02/16 11:01:10;;;;;;;12.57;6.03;;;13.10;68.70;;;;;;5060581;28;20027;-80
2024/02/16 11:03:38;;;;;;;5.68;3.65;;;13.10;68.50;;;;;;5067669;28;20067;-80
2024/02/16 11:06:15;;;;;;;12.68;6.30;;;13.20;70.00;;;;;;5070375;28;20029;-80
2024/02/16 11:08:41;;;;;;;3.78;3.05;;;13.30;70.00;;;;;;5039357;28;20019;-80
2024/02/16 11:11:09;;;;;;;7.72;5.35;;;13.30;69.80;;;;;;4999614;28;20516;-79
2024/02/16 11:13:39;;;;;;;4.10;2.67;;;13.20;67.40;;;;;;5001446;28;20022;-81
2024/02/16 11:16:10;;;;;;;89.45;44.40;;;13.20;67.30;;;;;;5062660;28;20459;-80
2024/02/16 11:18:44;;;;;;;48.58;23.25;;;13.30;67.40;;;;;;4990449;28;20481;-81
2024/02/16 11:21:15;;;;;;;29.13;12.00;;;13.30;67.80;;;;;;4999400;28;20029;-79
2024/02/16 11:23:41;;;;;;;15.98;6.75;;;13.40;66.70;;;;;;5012335;28;20088;-80
2024/02/16 11:26:11;;;;;;;8.88;4.60;;;13.30;67.50;;;;;;5079346;28;20025;-80
2024/02/16 11:28:38;;;;;;;5.40;4.55;;;13.40;68.30;;;;;;5006600;28;20026;-80
2024/02/16 11:31:04;;;;;;;3.90;2.42;;;13.50;68.30;;;;;;5005922;28;20030;-80
2024/02/16 11:33:30;;;;;;;3.53;2.20;;;13.50;67.40;;;;;;5011870;28;20040;-79
2024/02/16 11:35:57;;;;;;;3.92;2.22;;;13.50;68.10;;;;;;5012308;28;20083;-80
2024/02/16 11:38:23;;;;;;;5.72;3.10;;;13.50;66.80;;;;;;5002760;28;20030;-80
2024/02/16 11:41:05;;;;;;;40.10;17.85;;;13.50;66.20;;;;;;5002945;28;20565;-80
2024/02/16 11:43:34;;;;;;;22.50;12.82;;;13.60;65.90;;;;;;4999172;28;20037;-82
2024/02/16 11:46:14;;;;;;;11.35;6.82;;;13.60;66.20;;;;;;5001956;28;20030;-80
2024/02/16 11:48:41;;;;;;;3.70;2.50;;;13.60;65.50;;;;;;5078695;28;20018;-80
2024/02/16 11:51:06;;;;;;;6.70;2.92;;;13.60;65.00;;;;;;5011325;28;20050;-79
2024/02/16 11:53:33;;;;;;;3.20;2.08;;;13.60;64.80;;;;;;5009241;28;20057;-80
2024/02/16 11:55:59;;;;;;;4.47;2.95;;;13.60;64.50;;;;;;5005868;28;20066;-80
2024/02/16 11:58:26;;;;;;;5.72;2.88;;;13.60;64.40;;;;;;5001639;28;20026;-80
2024/02/16 12:00:53;;;;;;;4.00;2.80;;;13.60;64.80;;;;;;4998502;28;20027;-80
2024/02/16 12:03:23;;;;;;;19.23;9.35;;;13.50;64.90;;;;;;5076889;28;20082;-82
2024/02/16 12:05:56;;;;;;;4.97;3.60;;;13.60;65.70;;;;;;5063538;28;20122;-82
2024/02/16 12:08:22;;;;;;;9.43;5.45;;;13.60;64.70;;;;;;5075325;28;20042;-82
2024/02/16 12:10:52;;;;;;;7.30;3.20;;;13.60;65.30;;;;;;5005380;28;20033;-82
2024/02/16 12:13:18;;;;;;;4.05;2.35;;;13.70;66.00;;;;;;5090352;28;20030;-82
2024/02/16 12:15:45;;;;;;;5.05;2.58;;;13.70;64.00;;;;;;5073170;28;20548;-82
2024/02/16 12:18:19;;;;;;;4.80;2.65;;;13.70;64.20;;;;;;5073620;28;20023;-82
2024/02/16 12:20:48;;;;;;;6.47;3.42;;;13.70;66.20;;;;;;5078830;28;20494;-82
2024/02/16 12:23:14;;;;;;;22.75;11.50;;;13.70;64.80;;;;;;5068279;28;20026;-82
2024/02/16 12:25:39;;;;;;;26.83;16.85;;;13.80;64.00;;;;;;5072862;28;20026;-82
2024/02/16 12:28:05;;;;;;;7.70;3.55;;;13.80;64.50;;;;;;5009836;28;20018;-82
2024/02/16 12:30:31;;;;;;;6.72;3.38;;;13.90;66.40;;;;;;5067328;28;20060;-82
2024/02/16 12:32:57;;;;;;;15.23;4.38;;;13.90;65.50;;;;;;4997265;28;20055;-82
2024/02/16 12:35:22;;;;;;;5.50;2.88;;;13.90;66.60;;;;;;4999652;28;20080;-82
2024/02/16 12:37:48;;;;;;;5.75;3.55;;;13.90;66.60;;;;;;5007475;28;20029;-82